sensor_id;sensor_type;location;lat;lon;timestamp;pressure;altitude;pressure_sealevel;temperature;humidity
55801;BME280;41730;51.960;20.158;2022-09-06T00:02:24;101138.00;;;12.93;56.53
55801;BME280;41730;51.960;20.158;2022-09-06T00:04:55;101129.67;;;12.78;57.23
55801;BME280;41730;51.960;20.158;2022-09-06T00:07:27;101132.32;;;12.75;57.49
55801;BME280;41730;51.960;20.158;2022-09-06T00:09:58;101138.52;;;12.66;57.01
55801;BME280;41730;51.960;20.158;2022-09-06T00:12:32;101132.17;;;12.64;57.12
55801;BME280;41730;51.960;20.158;2022-09-06T00:15:04;101132.38;;;12.66;57.11
55801;BME280;41730;51.960;20.158;2022-09-06T00:17:35;101134.25;;;12.64;56.94
55801;BME280;41730;51.960;20.158;2022-09-06T00:20:07;101135.41;;;12.46;57.53
55801;BME280;41730;51.960;20.158;2022-09-06T00:22:39;101135.08;;;12.44;58.00
55801;BME280;41730;51.960;20.158;2022-09-06T00:25:10;101137.05;;;12.48;58.07
55801;BME280;41730;51.960;20.158;2022-09-06T00:27:41;101135.80;;;12.53;57.84
55801;BME280;41730;51.960;20.158;2022-09-06T00:30:13;101137.75;;;12.55;57.50
55801;BME280;41730;51.960;20.158;2022-09-06T00:32:45;101139.80;;;12.49;57.46
55801;BME280;41730;51.960;20.158;2022-09-06T00:35:16;101137.69;;;12.40;57.52
55801;BME280;41730;51.960;20.158;2022-09-06T00:37:48;101139.36;;;12.17;57.85
55801;BME280;41730;51.960;20.158;2022-09-06T00:40:19;101141.98;;;12.01;58.42
55801;BME280;41730;51.960;20.158;2022-09-06T00:42:50;101135.52;;;12.15;58.24
55801;BME280;41730;51.960;20.158;2022-09-06T00:45:23;101137.38;;;12.23;58.29
55801;BME280;41730;51.960;20.158;2022-09-06T00:47:56;101137.55;;;12.13;58.43
55801;BME280;41730;51.960;20.158;2022-09-06T00:50:29;101138.56;;;12.09;58.65
55801;BME280;41730;51.960;20.158;2022-09-06T00:53:01;101137.23;;;12.17;58.17
55801;BME280;41730;51.960;20.158;2022-09-06T00:55:32;101134.64;;;12.17;57.87
55801;BME280;41730;51.960;20.158;2022-09-06T00:58:03;101131.33;;;12.22;57.51
55801;BME280;41730;51.960;20.158;2022-09-06T01:00:35;101136.61;;;12.19;57.75
55801;BME280;41730;51.960;20.158;2022-09-06T01:03:06;101140.58;;;12.08;57.99
55801;BME280;41730;51.960;20.158;2022-09-06T01:05:57;101136.94;;;12.14;57.97
55801;BME280;41730;51.960;20.158;2022-09-06T01:08:42;101140.42;;;12.07;58.34
55801;BME280;41730;51.960;20.158;2022-09-06T01:11:39;101139.42;;;11.97;58.72
55801;BME280;41730;51.960;20.158;2022-09-06T01:14:18;101139.55;;;12.03;58.55
55801;BME280;41730;51.960;20.158;2022-09-06T01:16:59;101136.34;;;12.20;58.03
55801;BME280;41730;51.960;20.158;2022-09-06T01:22:59;101143.52;;;12.08;57.62
55801;BME280;41730;51.960;20.158;2022-09-06T01:25:41;101141.96;;;12.06;57.43
55801;BME280;41730;51.960;20.158;2022-09-06T01:28:35;101133.89;;;12.20;56.96
55801;BME280;41730;51.960;20.158;2022-09-06T01:31:18;101134.23;;;12.20;57.18
55801;BME280;41730;51.960;20.158;2022-09-06T01:34:13;101136.83;;;12.09;57.47
55801;BME280;41730;51.960;20.158;2022-09-06T01:36:51;101137.11;;;12.00;57.94
55801;BME280;41730;51.960;20.158;2022-09-06T01:39:39;101136.70;;;11.98;57.77
55801;BME280;41730;51.960;20.158;2022-09-06T01:42:15;101138.50;;;11.86;57.98
55801;BME280;41730;51.960;20.158;2022-09-06T01:44:50;101139.88;;;11.86;57.96
55801;BME280;41730;51.960;20.158;2022-09-06T01:47:32;101140.92;;;11.86;57.71
55801;BME280;41730;51.960;20.158;2022-09-06T01:50:18;101134.85;;;11.73;57.91
55801;BME280;41730;51.960;20.158;2022-09-06T01:53:00;101130.25;;;11.68;58.29
55801;BME280;41730;51.960;20.158;2022-09-06T01:55:38;101124.77;;;11.57;58.79
55801;BME280;41730;51.960;20.158;2022-09-06T01:58:32;101124.85;;;11.44;59.46
55801;BME280;41730;51.960;20.158;2022-09-06T02:01:15;101123.47;;;11.41;59.23
55801;BME280;41730;51.960;20.158;2022-09-06T02:03:57;101124.17;;;11.39;59.19
55801;BME280;41730;51.960;20.158;2022-09-06T02:06:31;101120.68;;;11.57;58.78
55801;BME280;41730;51.960;20.158;2022-09-06T02:09:08;101122.14;;;11.71;58.09
55801;BME280;41730;51.960;20.158;2022-09-06T02:11:38;101122.55;;;11.68;58.00
55801;BME280;41730;51.960;20.158;2022-09-06T02:14:14;101127.28;;;11.68;57.80
55801;BME280;41730;51.960;20.158;2022-09-06T02:16:48;101130.46;;;11.70;57.79
55801;BME280;41730;51.960;20.158;2022-09-06T02:19:25;101129.98;;;11.70;57.84
55801;BME280;41730;51.960;20.158;2022-09-06T02:21:58;101130.32;;;11.60;58.39
55801;BME280;41730;51.960;20.158;2022-09-06T02:24:33;101133.10;;;11.41;59.09
55801;BME280;41730;51.960;20.158;2022-09-06T02:27:09;101135.22;;;11.36;59.01
55801;BME280;41730;51.960;20.158;2022-09-06T02:29:41;101137.30;;;11.32;58.91
55801;BME280;41730;51.960;20.158;2022-09-06T02:32:16;101128.96;;;11.30;58.86
55801;BME280;41730;51.960;20.158;2022-09-06T02:34:49;101131.66;;;11.29;58.77
55801;BME280;41730;51.960;20.158;2022-09-06T02:37:21;101127.59;;;11.15;58.98
55801;BME280;41730;51.960;20.158;2022-09-06T02:39:52;101127.48;;;11.02;59.36
55801;BME280;41730;51.960;20.158;2022-09-06T02:42:25;101119.95;;;11.21;58.83
55801;BME280;41730;51.960;20.158;2022-09-06T02:44:56;101117.52;;;11.33;58.89
55801;BME280;41730;51.960;20.158;2022-09-06T02:47:27;101118.45;;;11.38;58.88
55801;BME280;41730;51.960;20.158;2022-09-06T02:49:58;101115.39;;;11.41;58.82
55801;BME280;41730;51.960;20.158;2022-09-06T02:52:30;101115.33;;;11.42;58.79
55801;BME280;41730;51.960;20.158;2022-09-06T02:55:01;101113.09;;;11.46;58.38
55801;BME280;41730;51.960;20.158;2022-09-06T02:57:33;101112.19;;;11.44;58.42
55801;BME280;41730;51.960;20.158;2022-09-06T03:00:05;101109.51;;;11.33;58.40
55801;BME280;41730;51.960;20.158;2022-09-06T03:02:37;101107.17;;;11.21;58.63
55801;BME280;41730;51.960;20.158;2022-09-06T03:05:09;101107.98;;;11.17;58.81
55801;BME280;41730;51.960;20.158;2022-09-06T03:07:41;101106.04;;;11.09;58.88
55801;BME280;41730;51.960;20.158;2022-09-06T03:10:12;101110.93;;;11.12;59.21
55801;BME280;41730;51.960;20.158;2022-09-06T03:12:44;101112.21;;;11.06;59.66
55801;BME280;41730;51.960;20.158;2022-09-06T03:15:16;101109.51;;;11.17;59.12
55801;BME280;41730;51.960;20.158;2022-09-06T03:17:47;101111.95;;;11.25;58.88
55801;BME280;41730;51.960;20.158;2022-09-06T03:20:19;101111.67;;;11.29;58.45
55801;BME280;41730;51.960;20.158;2022-09-06T03:22:50;101116.05;;;11.27;58.41
55801;BME280;41730;51.960;20.158;2022-09-06T03:25:22;101112.15;;;11.22;58.65
55801;BME280;41730;51.960;20.158;2022-09-06T03:27:54;101113.61;;;11.21;59.20
55801;BME280;41730;51.960;20.158;2022-09-06T03:30:25;101116.16;;;11.08;59.64
55801;BME280;41730;51.960;20.158;2022-09-06T03:32:57;101112.27;;;10.90;59.88
55801;BME280;41730;51.960;20.158;2022-09-06T03:35:31;101112.14;;;10.77;60.10
55801;BME280;41730;51.960;20.158;2022-09-06T03:38:04;101105.50;;;10.54;60.52
55801;BME280;41730;51.960;20.158;2022-09-06T03:40:38;101108.67;;;10.61;60.27
55801;BME280;41730;51.960;20.158;2022-09-06T03:43:14;101113.45;;;10.66;60.30
55801;BME280;41730;51.960;20.158;2022-09-06T03:45:48;101110.86;;;10.63;60.57
55801;BME280;41730;51.960;20.158;2022-09-06T03:48:23;101107.39;;;10.65;60.13
55801;BME280;41730;51.960;20.158;2022-09-06T03:50:56;101105.66;;;10.72;59.86
55801;BME280;41730;51.960;20.158;2022-09-06T03:53:29;101102.37;;;10.69;59.63
55801;BME280;41730;51.960;20.158;2022-09-06T03:56:00;101101.11;;;10.77;59.51
55801;BME280;41730;51.960;20.158;2022-09-06T03:58:32;101102.52;;;10.74;59.75
55801;BME280;41730;51.960;20.158;2022-09-06T04:01:06;101105.51;;;10.69;59.99
55801;BME280;41730;51.960;20.158;2022-09-06T04:03:39;101106.60;;;10.64;59.74
55801;BME280;41730;51.960;20.158;2022-09-06T04:06:10;101100.11;;;10.61;59.73
55801;BME280;41730;51.960;20.158;2022-09-06T04:08:42;101101.83;;;10.64;59.46
55801;BME280;41730;51.960;20.158;2022-09-06T04:11:14;101099.84;;;10.62;59.89
55801;BME280;41730;51.960;20.158;2022-09-06T04:13:46;101096.64;;;10.68;60.03
55801;BME280;41730;51.960;20.158;2022-09-06T04:16:17;101097.86;;;10.86;59.81
55801;BME280;41730;51.960;20.158;2022-09-06T04:18:48;101101.70;;;10.89;59.45
55801;BME280;41730;51.960;20.158;2022-09-06T04:21:22;101101.86;;;10.76;60.00
55801;BME280;41730;51.960;20.158;2022-09-06T04:23:53;101102.31;;;10.88;59.99
55801;BME280;41730;51.960;20.158;2022-09-06T04:26:25;101104.30;;;11.09;59.84
55801;BME280;41730;51.960;20.158;2022-09-06T04:28:56;101108.70;;;11.34;59.61
55801;BME280;41730;51.960;20.158;2022-09-06T04:31:28;101111.79;;;11.66;59.04
55801;BME280;41730;51.960;20.158;2022-09-06T04:33:59;101118.73;;;12.23;58.11
55801;BME280;41730;51.960;20.158;2022-09-06T04:36:30;101107.88;;;12.86;57.41
55801;BME280;41730;51.960;20.158;2022-09-06T04:39:02;101109.27;;;13.71;56.02
55801;BME280;41730;51.960;20.158;2022-09-06T04:41:35;101109.39;;;14.57;54.82
55801;BME280;41730;51.960;20.158;2022-09-06T04:44:07;101107.77;;;15.42;53.35
55801;BME280;41730;51.960;20.158;2022-09-06T04:46:41;101107.40;;;16.17;52.08
55801;BME280;41730;51.960;20.158;2022-09-06T04:49:13;101101.28;;;16.79;51.32
55801;BME280;41730;51.960;20.158;2022-09-06T04:51:44;101099.95;;;17.32;50.08
55801;BME280;41730;51.960;20.158;2022-09-06T04:54:15;101099.08;;;18.01;48.72
55801;BME280;41730;51.960;20.158;2022-09-06T04:56:47;101098.16;;;18.57;47.96
55801;BME280;41730;51.960;20.158;2022-09-06T04:59:18;101094.59;;;18.88;47.40
55801;BME280;41730;51.960;20.158;2022-09-06T05:01:50;101099.96;;;19.22;46.86
55801;BME280;41730;51.960;20.158;2022-09-06T05:04:21;101099.55;;;19.56;46.30
55801;BME280;41730;51.960;20.158;2022-09-06T05:07:00;101100.79;;;19.90;46.04
55801;BME280;41730;51.960;20.158;2022-09-06T05:09:32;101096.49;;;20.35;45.47
55801;BME280;41730;51.960;20.158;2022-09-06T05:12:04;101093.70;;;20.72;44.75
55801;BME280;41730;51.960;20.158;2022-09-06T05:14:35;101091.57;;;20.97;44.28
55801;BME280;41730;51.960;20.158;2022-09-06T05:17:06;101089.13;;;21.13;43.89
55801;BME280;41730;51.960;20.158;2022-09-06T05:19:38;101092.80;;;21.23;43.77
55801;BME280;41730;51.960;20.158;2022-09-06T05:22:11;101083.74;;;21.37;43.43
55801;BME280;41730;51.960;20.158;2022-09-06T05:24:42;101086.92;;;21.50;43.23
55801;BME280;41730;51.960;20.158;2022-09-06T05:27:15;101090.50;;;21.73;42.72
55801;BME280;41730;51.960;20.158;2022-09-06T05:29:46;101094.07;;;21.69;42.66
55801;BME280;41730;51.960;20.158;2022-09-06T05:32:18;101092.50;;;21.69;42.57
55801;BME280;41730;51.960;20.158;2022-09-06T05:34:49;101089.65;;;21.80;42.49
55801;BME280;41730;51.960;20.158;2022-09-06T05:37:20;101092.16;;;21.86;42.15
55801;BME280;41730;51.960;20.158;2022-09-06T05:39:53;101088.84;;;21.90;42.15
55801;BME280;41730;51.960;20.158;2022-09-06T05:42:26;101089.89;;;21.96;41.89
55801;BME280;41730;51.960;20.158;2022-09-06T05:44:58;101091.09;;;22.09;41.62
55801;BME280;41730;51.960;20.158;2022-09-06T05:47:30;101095.73;;;22.25;41.26
55801;BME280;41730;51.960;20.158;2022-09-06T05:50:04;101097.95;;;22.34;41.04
55801;BME280;41730;51.960;20.158;2022-09-06T05:52:37;101098.96;;;22.36;40.89
55801;BME280;41730;51.960;20.158;2022-09-06T05:55:09;101101.38;;;22.55;40.62
55801;BME280;41730;51.960;20.158;2022-09-06T05:57:40;101102.56;;;22.55;40.30
55801;BME280;41730;51.960;20.158;2022-09-06T06:00:16;101104.84;;;22.30;40.17
55801;BME280;41730;51.960;20.158;2022-09-06T06:02:49;101109.95;;;22.03;40.23
55801;BME280;41730;51.960;20.158;2022-09-06T06:05:21;101111.97;;;22.06;40.09
55801;BME280;41730;51.960;20.158;2022-09-06T06:07:53;101106.63;;;22.21;40.00
55801;BME280;41730;51.960;20.158;2022-09-06T06:10:25;101108.55;;;22.17;40.07
55801;BME280;41730;51.960;20.158;2022-09-06T06:12:57;101105.39;;;22.30;40.10
55801;BME280;41730;51.960;20.158;2022-09-06T06:15:30;101100.50;;;22.22;39.61
55801;BME280;41730;51.960;20.158;2022-09-06T06:18:02;101099.31;;;22.03;39.74
55801;BME280;41730;51.960;20.158;2022-09-06T06:20:33;101098.10;;;22.07;39.85
55801;BME280;41730;51.960;20.158;2022-09-06T06:23:04;101100.63;;;22.08;39.69
55801;BME280;41730;51.960;20.158;2022-09-06T06:25:35;101102.89;;;22.10;39.67
55801;BME280;41730;51.960;20.158;2022-09-06T06:28:07;101107.23;;;22.10;39.56
55801;BME280;41730;51.960;20.158;2022-09-06T06:30:38;101115.29;;;22.02;39.55
55801;BME280;41730;51.960;20.158;2022-09-06T06:33:10;101109.80;;;22.12;39.24
55801;BME280;41730;51.960;20.158;2022-09-06T06:35:41;101117.69;;;22.33;38.87
55801;BME280;41730;51.960;20.158;2022-09-06T06:38:30;101113.45;;;22.42;38.55
55801;BME280;41730;51.960;20.158;2022-09-06T06:41:02;101115.45;;;22.46;38.11
55801;BME280;41730;51.960;20.158;2022-09-06T06:43:35;101117.89;;;22.44;37.97
55801;BME280;41730;51.960;20.158;2022-09-06T06:46:08;101115.92;;;22.39;37.80
55801;BME280;41730;51.960;20.158;2022-09-06T06:48:40;101115.66;;;22.36;37.95
55801;BME280;41730;51.960;20.158;2022-09-06T06:51:14;101112.34;;;22.32;37.98
55801;BME280;41730;51.960;20.158;2022-09-06T06:53:47;101110.17;;;22.30;38.05
55801;BME280;41730;51.960;20.158;2022-09-06T06:56:20;101109.83;;;22.40;37.43
55801;BME280;41730;51.960;20.158;2022-09-06T06:58:53;101106.62;;;22.06;37.23
55801;BME280;41730;51.960;20.158;2022-09-06T07:01:30;101105.30;;;21.76;37.57
55801;BME280;41730;51.960;20.158;2022-09-06T07:04:10;101107.94;;;21.58;37.95
55801;BME280;41730;51.960;20.158;2022-09-06T07:06:50;101112.36;;;21.57;37.97
55801;BME280;41730;51.960;20.158;2022-09-06T07:09:42;101111.68;;;21.59;37.91
55801;BME280;41730;51.960;20.158;2022-09-06T07:12:34;101107.83;;;21.59;37.27
55801;BME280;41730;51.960;20.158;2022-09-06T07:15:06;101111.78;;;21.59;37.31
55801;BME280;41730;51.960;20.158;2022-09-06T07:17:38;101113.09;;;21.75;37.24
55801;BME280;41730;51.960;20.158;2022-09-06T07:20:10;101116.28;;;22.00;37.10
55801;BME280;41730;51.960;20.158;2022-09-06T07:22:43;101117.55;;;22.02;37.00
55801;BME280;41730;51.960;20.158;2022-09-06T07:25:14;101124.44;;;21.96;36.96
55801;BME280;41730;51.960;20.158;2022-09-06T07:27:59;101122.60;;;21.82;36.91
55801;BME280;41730;51.960;20.158;2022-09-06T07:30:35;101123.82;;;21.75;36.81
55801;BME280;41730;51.960;20.158;2022-09-06T07:33:08;101131.67;;;21.61;37.06
55801;BME280;41730;51.960;20.158;2022-09-06T07:35:40;101132.34;;;21.61;37.38
55801;BME280;41730;51.960;20.158;2022-09-06T07:38:12;101129.13;;;21.86;37.18
55801;BME280;41730;51.960;20.158;2022-09-06T07:40:51;101133.17;;;22.08;36.78
55801;BME280;41730;51.960;20.158;2022-09-06T07:43:22;101132.13;;;22.20;36.81
55801;BME280;41730;51.960;20.158;2022-09-06T07:46:02;101130.30;;;22.23;36.43
55801;BME280;41730;51.960;20.158;2022-09-06T07:48:36;101129.94;;;22.03;36.68
55801;BME280;41730;51.960;20.158;2022-09-06T07:51:09;101127.20;;;21.78;36.92
55801;BME280;41730;51.960;20.158;2022-09-06T07:53:42;101126.16;;;21.85;36.83
55801;BME280;41730;51.960;20.158;2022-09-06T07:56:14;101128.02;;;21.86;36.58
55801;BME280;41730;51.960;20.158;2022-09-06T07:58:45;101127.34;;;21.84;36.24
55801;BME280;41730;51.960;20.158;2022-09-06T08:01:30;101125.91;;;21.81;36.15
55801;BME280;41730;51.960;20.158;2022-09-06T08:04:09;101126.79;;;21.67;36.35
55801;BME280;41730;51.960;20.158;2022-09-06T08:07:15;101125.95;;;21.67;36.52
55801;BME280;41730;51.960;20.158;2022-09-06T08:10:07;101124.41;;;21.49;36.72
55801;BME280;41730;51.960;20.158;2022-09-06T08:12:39;101124.19;;;21.50;36.50
55801;BME280;41730;51.960;20.158;2022-09-06T08:15:11;101122.64;;;21.56;36.52
55801;BME280;41730;51.960;20.158;2022-09-06T08:17:42;101128.77;;;21.61;36.59
55801;BME280;41730;51.960;20.158;2022-09-06T08:20:18;101122.52;;;21.54;36.71
55801;BME280;41730;51.960;20.158;2022-09-06T08:22:49;101123.23;;;21.57;36.71
55801;BME280;41730;51.960;20.158;2022-09-06T08:25:20;101117.35;;;21.46;36.55
55801;BME280;41730;51.960;20.158;2022-09-06T08:27:52;101117.65;;;21.25;36.85
55801;BME280;41730;51.960;20.158;2022-09-06T08:30:25;101115.40;;;21.16;37.04
55801;BME280;41730;51.960;20.158;2022-09-06T08:32:58;101114.24;;;21.18;37.36
55801;BME280;41730;51.960;20.158;2022-09-06T08:35:29;101107.91;;;21.23;37.24
55801;BME280;41730;51.960;20.158;2022-09-06T08:38:01;101104.40;;;21.23;37.53
55801;BME280;41730;51.960;20.158;2022-09-06T08:40:34;101106.24;;;21.28;37.47
55801;BME280;41730;51.960;20.158;2022-09-06T08:43:05;101101.02;;;21.46;37.43
55801;BME280;41730;51.960;20.158;2022-09-06T08:45:45;101101.65;;;21.76;37.08
55801;BME280;41730;51.960;20.158;2022-09-06T08:48:21;101091.35;;;21.76;36.90
55801;BME280;41730;51.960;20.158;2022-09-06T08:51:03;101100.35;;;21.68;36.90
55801;BME280;41730;51.960;20.158;2022-09-06T08:53:39;101099.98;;;21.66;36.53
55801;BME280;41730;51.960;20.158;2022-09-06T08:56:16;101095.65;;;21.54;36.14
55801;BME280;41730;51.960;20.158;2022-09-06T08:58:59;101093.96;;;21.41;36.48
55801;BME280;41730;51.960;20.158;2022-09-06T09:01:39;101097.31;;;21.33;36.71
55801;BME280;41730;51.960;20.158;2022-09-06T09:04:19;101092.98;;;21.31;36.72
55801;BME280;41730;51.960;20.158;2022-09-06T09:06:56;101087.77;;;21.19;36.86
55801;BME280;41730;51.960;20.158;2022-09-06T09:09:33;101083.06;;;21.14;37.13
55801;BME280;41730;51.960;20.158;2022-09-06T09:12:06;101083.27;;;21.28;37.20
55801;BME280;41730;51.960;20.158;2022-09-06T09:14:41;101084.57;;;21.34;37.06
55801;BME280;41730;51.960;20.158;2022-09-06T09:17:18;101093.84;;;21.20;36.95
55801;BME280;41730;51.960;20.158;2022-09-06T09:19:50;101084.79;;;20.96;37.10
55801;BME280;41730;51.960;20.158;2022-09-06T09:22:22;101086.58;;;21.02;37.24
55801;BME280;41730;51.960;20.158;2022-09-06T09:24:58;101080.19;;;21.00;36.99
55801;BME280;41730;51.960;20.158;2022-09-06T09:27:30;101076.71;;;20.95;37.42
55801;BME280;41730;51.960;20.158;2022-09-06T09:30:05;101075.96;;;21.05;37.55
55801;BME280;41730;51.960;20.158;2022-09-06T09:32:56;101072.33;;;21.29;37.30
55801;BME280;41730;51.960;20.158;2022-09-06T09:35:33;101071.34;;;21.31;37.18
55801;BME280;41730;51.960;20.158;2022-09-06T09:38:09;101070.23;;;21.42;36.88
55801;BME280;41730;51.960;20.158;2022-09-06T09:40:50;101071.26;;;21.46;36.76
55801;BME280;41730;51.960;20.158;2022-09-06T09:43:23;101062.73;;;21.38;36.45
55801;BME280;41730;51.960;20.158;2022-09-06T09:46:16;101055.21;;;21.16;36.82
55801;BME280;41730;51.960;20.158;2022-09-06T09:49:05;101051.34;;;21.10;37.28
55801;BME280;41730;51.960;20.158;2022-09-06T09:51:38;101053.83;;;21.10;37.56
55801;BME280;41730;51.960;20.158;2022-09-06T09:54:12;101042.27;;;20.92;37.55
55801;BME280;41730;51.960;20.158;2022-09-06T09:56:47;101040.77;;;20.91;37.79
55801;BME280;41730;51.960;20.158;2022-09-06T09:59:24;101039.76;;;20.98;37.87
55801;BME280;41730;51.960;20.158;2022-09-06T10:01:58;101031.74;;;21.08;37.73
55801;BME280;41730;51.960;20.158;2022-09-06T10:04:33;101029.27;;;21.17;37.67
55801;BME280;41730;51.960;20.158;2022-09-06T10:07:15;101025.95;;;21.27;37.19
55801;BME280;41730;51.960;20.158;2022-09-06T10:09:46;101014.34;;;21.35;37.12
55801;BME280;41730;51.960;20.158;2022-09-06T10:12:27;101019.76;;;21.52;36.94
55801;BME280;41730;51.960;20.158;2022-09-06T10:14:59;101016.52;;;21.52;37.09
55801;BME280;41730;51.960;20.158;2022-09-06T10:17:37;101019.43;;;21.52;36.90
55801;BME280;41730;51.960;20.158;2022-09-06T10:20:17;101017.73;;;21.40;37.05
55801;BME280;41730;51.960;20.158;2022-09-06T10:22:54;101015.89;;;21.42;37.18
55801;BME280;41730;51.960;20.158;2022-09-06T10:25:40;101011.27;;;21.37;37.29
55801;BME280;41730;51.960;20.158;2022-09-06T10:28:34;101011.33;;;21.41;37.32
55801;BME280;41730;51.960;20.158;2022-09-06T10:31:35;101006.98;;;21.53;37.06
55801;BME280;41730;51.960;20.158;2022-09-06T10:37:43;101000.48;;;21.84;37.04
55801;BME280;41730;51.960;20.158;2022-09-06T10:40:23;100996.30;;;21.80;36.93
55801;BME280;41730;51.960;20.158;2022-09-06T10:42:59;100991.79;;;21.76;37.10
55801;BME280;41730;51.960;20.158;2022-09-06T10:45:41;100995.20;;;21.73;37.30
55801;BME280;41730;51.960;20.158;2022-09-06T10:48:19;100994.63;;;21.65;37.29
55801;BME280;41730;51.960;20.158;2022-09-06T10:50:57;100992.17;;;21.64;37.36
55801;BME280;41730;51.960;20.158;2022-09-06T10:53:36;100988.40;;;21.70;37.17
55801;BME280;41730;51.960;20.158;2022-09-06T10:56:12;100987.16;;;21.62;37.50
55801;BME280;41730;51.960;20.158;2022-09-06T10:58:53;100986.17;;;21.64;37.33
55801;BME280;41730;51.960;20.158;2022-09-06T11:01:56;100988.63;;;21.63;37.48
55801;BME280;41730;51.960;20.158;2022-09-06T11:04:35;100992.92;;;21.62;37.23
55801;BME280;41730;51.960;20.158;2022-09-06T11:07:29;100993.52;;;21.49;37.28
55801;BME280;41730;51.960;20.158;2022-09-06T11:10:05;100991.85;;;21.53;37.12
55801;BME280;41730;51.960;20.158;2022-09-06T11:12:44;100983.60;;;21.42;37.09
55801;BME280;41730;51.960;20.158;2022-09-06T11:15:19;100985.72;;;21.42;36.79
55801;BME280;41730;51.960;20.158;2022-09-06T11:17:56;100979.67;;;21.36;36.94
55801;BME280;41730;51.960;20.158;2022-09-06T11:20:34;100978.17;;;21.38;36.69
55801;BME280;41730;51.960;20.158;2022-09-06T11:23:25;100981.57;;;21.30;36.63
55801;BME280;41730;51.960;20.158;2022-09-06T11:26:33;100975.23;;;21.31;36.59
55801;BME280;41730;51.960;20.158;2022-09-06T11:29:15;100972.69;;;21.18;36.82
55801;BME280;41730;51.960;20.158;2022-09-06T11:31:53;100971.30;;;21.14;36.99
55801;BME280;41730;51.960;20.158;2022-09-06T11:34:52;100975.79;;;21.04;36.94
55801;BME280;41730;51.960;20.158;2022-09-06T11:37:27;100967.91;;;20.99;36.83
55801;BME280;41730;51.960;20.158;2022-09-06T11:40:14;100968.46;;;20.88;36.93
55801;BME280;41730;51.960;20.158;2022-09-06T11:43:40;100965.70;;;20.73;37.14
55801;BME280;41730;51.960;20.158;2022-09-06T11:46:11;100961.73;;;20.86;36.96
55801;BME280;41730;51.960;20.158;2022-09-06T11:49:04;100957.20;;;20.94;36.92
55801;BME280;41730;51.960;20.158;2022-09-06T11:51:37;100958.88;;;21.03;36.94
55801;BME280;41730;51.960;20.158;2022-09-06T11:54:24;100947.52;;;20.98;36.78
55801;BME280;41730;51.960;20.158;2022-09-06T11:57:01;100948.25;;;21.08;36.57
55801;BME280;41730;51.960;20.158;2022-09-06T11:59:50;100936.61;;;20.99;36.84
55801;BME280;41730;51.960;20.158;2022-09-06T12:02:39;100940.94;;;21.15;36.84
55801;BME280;41730;51.960;20.158;2022-09-06T12:05:23;100944.17;;;21.22;37.11
55801;BME280;41730;51.960;20.158;2022-09-06T12:11:23;100940.58;;;21.16;36.70
55801;BME280;41730;51.960;20.158;2022-09-06T12:14:00;100940.36;;;21.07;36.80
55801;BME280;41730;51.960;20.158;2022-09-06T12:19:54;100929.39;;;21.36;36.78
55801;BME280;41730;51.960;20.158;2022-09-06T12:22:52;100925.64;;;21.51;36.56
55801;BME280;41730;51.960;20.158;2022-09-06T12:25:56;100922.02;;;21.55;36.38
55801;BME280;41730;51.960;20.158;2022-09-06T12:28:38;100928.95;;;21.65;36.09
55801;BME280;41730;51.960;20.158;2022-09-06T12:31:37;100928.00;;;21.76;35.91
55801;BME280;41730;51.960;20.158;2022-09-06T12:34:13;100927.08;;;21.72;35.98
55801;BME280;41730;51.960;20.158;2022-09-06T12:36:56;100924.35;;;21.71;35.81
55801;BME280;41730;51.960;20.158;2022-09-06T12:39:28;100921.90;;;21.81;35.81
55801;BME280;41730;51.960;20.158;2022-09-06T12:42:01;100917.27;;;21.98;35.75
55801;BME280;41730;51.960;20.158;2022-09-06T12:44:35;100918.67;;;22.04;35.46
55801;BME280;41730;51.960;20.158;2022-09-06T12:47:11;100911.80;;;22.02;35.59
55801;BME280;41730;51.960;20.158;2022-09-06T12:49:44;100910.89;;;22.00;35.66
55801;BME280;41730;51.960;20.158;2022-09-06T12:52:19;100910.36;;;21.94;35.58
55801;BME280;41730;51.960;20.158;2022-09-06T12:54:50;100901.84;;;21.82;35.72
55801;BME280;41730;51.960;20.158;2022-09-06T12:57:24;100901.80;;;21.89;35.62
55801;BME280;41730;51.960;20.158;2022-09-06T12:59:56;100904.45;;;21.99;35.57
55801;BME280;41730;51.960;20.158;2022-09-06T13:02:33;100904.93;;;21.84;35.67
55801;BME280;41730;51.960;20.158;2022-09-06T13:05:08;100906.43;;;21.69;35.78
55801;BME280;41730;51.960;20.158;2022-09-06T13:07:43;100900.09;;;21.77;35.74
55801;BME280;41730;51.960;20.158;2022-09-06T13:10:17;100898.43;;;21.88;35.60
55801;BME280;41730;51.960;20.158;2022-09-06T13:12:50;100893.84;;;22.01;35.48
55801;BME280;41730;51.960;20.158;2022-09-06T13:15:24;100893.10;;;21.95;35.45
55801;BME280;41730;51.960;20.158;2022-09-06T13:18:20;100892.77;;;21.98;35.19
55801;BME280;41730;51.960;20.158;2022-09-06T13:21:03;100888.23;;;21.99;35.02
55801;BME280;41730;51.960;20.158;2022-09-06T13:23:43;100885.98;;;21.97;35.18
55801;BME280;41730;51.960;20.158;2022-09-06T13:26:30;100883.55;;;21.84;35.46
55801;BME280;41730;51.960;20.158;2022-09-06T13:29:12;100881.34;;;21.84;35.53
55801;BME280;41730;51.960;20.158;2022-09-06T13:31:54;100874.27;;;21.99;35.47
55801;BME280;41730;51.960;20.158;2022-09-06T13:34:27;100877.20;;;22.04;35.33
55801;BME280;41730;51.960;20.158;2022-09-06T13:37:03;100868.22;;;22.15;35.02
55801;BME280;41730;51.960;20.158;2022-09-06T13:39:37;100870.00;;;22.06;35.10
55801;BME280;41730;51.960;20.158;2022-09-06T13:42:10;100870.21;;;21.97;35.23